sensor_id;sensor_type;location;lat;lon;timestamp;pressure;altitude;pressure_sealevel;temperature;humidity
42125;BME280;27787;44.594;11.046;2022-12-15T00:01:10;100128.63;;;5.52;79.57
42125;BME280;27787;44.594;11.046;2022-12-15T00:04:12;100114.69;;;5.53;79.31
42125;BME280;27787;44.594;11.046;2022-12-15T00:07:15;100125.19;;;5.54;79.35
42125;BME280;27787;44.594;11.046;2022-12-15T00:10:18;100124.34;;;5.57;79.42
42125;BME280;27787;44.594;11.046;2022-12-15T00:13:21;100123.53;;;5.59;79.67
42125;BME280;27787;44.594;11.046;2022-12-15T00:16:24;100126.06;;;5.55;79.76
42125;BME280;27787;44.594;11.046;2022-12-15T00:19:27;100119.91;;;5.51;80.08
42125;BME280;27787;44.594;11.046;2022-12-15T00:22:30;100127.72;;;5.48;80.23
42125;BME280;27787;44.594;11.046;2022-12-15T00:25:33;100128.63;;;5.50;80.32
42125;BME280;27787;44.594;11.046;2022-12-15T00:28:36;100116.31;;;5.46;80.35
42125;BME280;27787;44.594;11.046;2022-12-15T00:31:39;100116.28;;;5.45;80.38
42125;BME280;27787;44.594;11.046;2022-12-15T00:34:42;100132.81;;;5.42;80.78
42125;BME280;27787;44.594;11.046;2022-12-15T00:37:45;100121.44;;;5.40;80.67
42125;BME280;27787;44.594;11.046;2022-12-15T00:40:49;100119.63;;;5.35;81.41
42125;BME280;27787;44.594;11.046;2022-12-15T00:43:34;100117.88;;;5.35;81.55
42125;BME280;27787;44.594;11.046;2022-12-15T00:46:19;100118.78;;;5.37;81.70
42125;BME280;27787;44.594;11.046;2022-12-15T00:49:24;100118.75;;;5.34;81.95
42125;BME280;27787;44.594;11.046;2022-12-15T00:52:27;100114.25;;;5.27;82.32
42125;BME280;27787;44.594;11.046;2022-12-15T00:55:30;100116.81;;;5.24;82.92
42125;BME280;27787;44.594;11.046;2022-12-15T00:58:32;100115.03;;;5.23;83.20
42125;BME280;27787;44.594;11.046;2022-12-15T01:01:35;100116.81;;;5.25;83.23
42125;BME280;27787;44.594;11.046;2022-12-15T01:04:38;100116.88;;;5.28;83.22
42125;BME280;27787;44.594;11.046;2022-12-15T01:07:41;100126.50;;;5.31;83.55
42125;BME280;27787;44.594;11.046;2022-12-15T01:10:43;100129.22;;;5.36;83.62
42125;BME280;27787;44.594;11.046;2022-12-15T01:13:46;100131.81;;;5.34;82.80
42125;BME280;27787;44.594;11.046;2022-12-15T01:16:49;100130.03;;;5.33;83.11
42125;BME280;27787;44.594;11.046;2022-12-15T01:19:52;100130.81;;;5.27;83.31
42125;BME280;27787;44.594;11.046;2022-12-15T01:22:55;100139.53;;;5.26;83.35
42125;BME280;27787;44.594;11.046;2022-12-15T01:25:39;100148.16;;;5.21;83.47
42125;BME280;27787;44.594;11.046;2022-12-15T01:28:24;100136.69;;;5.16;83.93
42125;BME280;27787;44.594;11.046;2022-12-15T01:31:10;100143.66;;;5.14;84.00
42125;BME280;27787;44.594;11.046;2022-12-15T01:33:54;100152.34;;;5.13;84.18
42125;BME280;27787;44.594;11.046;2022-12-15T01:36:38;100159.28;;;5.11;84.47
42125;BME280;27787;44.594;11.046;2022-12-15T01:39:22;100162.81;;;5.13;84.41
42125;BME280;27787;44.594;11.046;2022-12-15T01:42:11;100165.41;;;5.11;84.25
42125;BME280;27787;44.594;11.046;2022-12-15T01:48:09;100171.38;;;5.06;84.60
42125;BME280;27787;44.594;11.046;2022-12-15T01:51:19;100157.38;;;5.03;84.77
42125;BME280;27787;44.594;11.046;2022-12-15T01:54:19;100172.22;;;5.04;84.89
42125;BME280;27787;44.594;11.046;2022-12-15T01:57:18;100162.56;;;5.00;84.95
42125;BME280;27787;44.594;11.046;2022-12-15T02:00:05;100149.44;;;4.97;85.01
42125;BME280;27787;44.594;11.046;2022-12-15T02:02:51;100143.22;;;4.92;85.50
42125;BME280;27787;44.594;11.046;2022-12-15T02:05:37;100145.81;;;4.91;85.31
42125;BME280;27787;44.594;11.046;2022-12-15T02:08:22;100132.66;;;4.88;85.55
42125;BME280;27787;44.594;11.046;2022-12-15T02:14:05;100128.09;;;4.78;86.21
42125;BME280;27787;44.594;11.046;2022-12-15T02:27:28;100123.66;;;4.72;87.19
42125;BME280;27787;44.594;11.046;2022-12-15T02:38:37;100168.16;;;4.75;87.34
42125;BME280;27787;44.594;11.046;2022-12-15T02:44:27;100182.09;;;4.76;86.56
42125;BME280;27787;44.594;11.046;2022-12-15T02:50:43;100166.19;;;4.66;86.48
42125;BME280;27787;44.594;11.046;2022-12-15T02:53:37;100152.97;;;4.57;86.68
42125;BME280;27787;44.594;11.046;2022-12-15T02:56:47;100154.53;;;4.51;86.72
42125;BME280;27787;44.594;11.046;2022-12-15T03:00:00;100153.56;;;4.46;87.40
42125;BME280;27787;44.594;11.046;2022-12-15T03:02:54;100145.72;;;4.46;87.81
42125;BME280;27787;44.594;11.046;2022-12-15T03:05:39;100136.16;;;4.46;87.93
42125;BME280;27787;44.594;11.046;2022-12-15T03:08:23;100140.41;;;4.42;87.39
42125;BME280;27787;44.594;11.046;2022-12-15T03:11:07;100147.22;;;4.34;87.60
42125;BME280;27787;44.594;11.046;2022-12-15T03:13:52;100147.94;;;4.29;88.09
42125;BME280;27787;44.594;11.046;2022-12-15T03:16:37;100152.38;;;4.31;88.47
42125;BME280;27787;44.594;11.046;2022-12-15T03:19:21;100161.75;;;4.22;87.90
42125;BME280;27787;44.594;11.046;2022-12-15T03:22:05;100157.91;;;4.07;88.81
42125;BME280;27787;44.594;11.046;2022-12-15T03:24:50;100173.38;;;3.98;89.45
42125;BME280;27787;44.594;11.046;2022-12-15T03:27:34;100171.41;;;3.90;90.06
42125;BME280;27787;44.594;11.046;2022-12-15T03:30:19;100171.41;;;3.90;90.70
42125;BME280;27787;44.594;11.046;2022-12-15T03:33:04;100177.47;;;3.89;90.79
42125;BME280;27787;44.594;11.046;2022-12-15T03:35:49;100182.63;;;3.85;91.11
42125;BME280;27787;44.594;11.046;2022-12-15T03:38:34;100180.13;;;3.90;91.49
42125;BME280;27787;44.594;11.046;2022-12-15T03:41:18;100184.69;;;3.99;91.21
42125;BME280;27787;44.594;11.046;2022-12-15T03:44:03;100183.19;;;4.08;90.83
42125;BME280;27787;44.594;11.046;2022-12-15T03:46:47;100193.59;;;4.07;90.04
42125;BME280;27787;44.594;11.046;2022-12-15T03:49:31;100202.06;;;3.97;89.36
42125;BME280;27787;44.594;11.046;2022-12-15T03:52:15;100204.34;;;3.84;90.04
42125;BME280;27787;44.594;11.046;2022-12-15T03:54:59;100200.66;;;3.76;90.77
42125;BME280;27787;44.594;11.046;2022-12-15T03:57:43;100194.50;;;3.74;91.18
42125;BME280;27787;44.594;11.046;2022-12-15T04:00:28;100203.16;;;3.72;91.08
42125;BME280;27787;44.594;11.046;2022-12-15T04:03:12;100213.38;;;3.64;91.05
42125;BME280;27787;44.594;11.046;2022-12-15T04:05:56;100217.63;;;3.59;91.61
42125;BME280;27787;44.594;11.046;2022-12-15T04:08:40;100214.97;;;3.58;91.83
42125;BME280;27787;44.594;11.046;2022-12-15T04:11:25;100207.22;;;3.61;91.99
42125;BME280;27787;44.594;11.046;2022-12-15T04:14:09;100201.00;;;3.55;91.64
42125;BME280;27787;44.594;11.046;2022-12-15T04:16:53;100199.09;;;3.50;91.89
42125;BME280;27787;44.594;11.046;2022-12-15T04:19:38;100208.63;;;3.48;92.06
42125;BME280;27787;44.594;11.046;2022-12-15T04:22:44;100213.72;;;3.43;92.10
42125;BME280;27787;44.594;11.046;2022-12-15T04:25:28;100216.28;;;3.42;92.43
42125;BME280;27787;44.594;11.046;2022-12-15T04:28:31;100206.75;;;3.42;92.67
42125;BME280;27787;44.594;11.046;2022-12-15T04:31:34;100192.72;;;3.39;92.69
42125;BME280;27787;44.594;11.046;2022-12-15T04:34:37;100194.56;;;3.43;92.55
42125;BME280;27787;44.594;11.046;2022-12-15T04:37:39;100189.34;;;3.43;92.60
42125;BME280;27787;44.594;11.046;2022-12-15T04:40:42;100203.25;;;3.42;92.82
42125;BME280;27787;44.594;11.046;2022-12-15T04:43:45;100198.91;;;3.42;92.63
42125;BME280;27787;44.594;11.046;2022-12-15T04:46:48;100197.34;;;3.49;92.57
42125;BME280;27787;44.594;11.046;2022-12-15T04:49:51;100193.00;;;3.49;92.34
42125;BME280;27787;44.594;11.046;2022-12-15T04:52:54;100199.94;;;3.49;92.13
42125;BME280;27787;44.594;11.046;2022-12-15T04:55:57;100200.69;;;3.43;92.47
42125;BME280;27787;44.594;11.046;2022-12-15T04:59:00;100203.22;;;3.40;92.43
42125;BME280;27787;44.594;11.046;2022-12-15T05:02:03;100196.16;;;3.38;92.50
42125;BME280;27787;44.594;11.046;2022-12-15T05:05:06;100190.13;;;3.39;92.65
42125;BME280;27787;44.594;11.046;2022-12-15T05:08:09;100199.28;;;3.56;93.11
42125;BME280;27787;44.594;11.046;2022-12-15T05:11:12;100203.19;;;3.73;92.15
42125;BME280;27787;44.594;11.046;2022-12-15T05:14:15;100210.38;;;3.82;90.96
42125;BME280;27787;44.594;11.046;2022-12-15T05:17:18;100213.16;;;3.90;90.59
42125;BME280;27787;44.594;11.046;2022-12-15T05:20:20;100219.50;;;3.99;90.18
42125;BME280;27787;44.594;11.046;2022-12-15T05:23:23;100216.94;;;4.01;89.32
42125;BME280;27787;44.594;11.046;2022-12-15T05:26:26;100231.56;;;3.93;89.24
42125;BME280;27787;44.594;11.046;2022-12-15T05:29:29;100230.66;;;3.92;89.76
42125;BME280;27787;44.594;11.046;2022-12-15T05:32:32;100246.31;;;3.91;89.77
42125;BME280;27787;44.594;11.046;2022-12-15T05:35:16;100256.66;;;3.89;90.29
42125;BME280;27787;44.594;11.046;2022-12-15T05:37:59;100260.16;;;3.90;90.45
42125;BME280;27787;44.594;11.046;2022-12-15T05:40:43;100268.19;;;3.96;90.57
42125;BME280;27787;44.594;11.046;2022-12-15T05:43:28;100263.09;;;4.02;90.25
42125;BME280;27787;44.594;11.046;2022-12-15T05:46:13;100251.81;;;4.03;89.79
42125;BME280;27787;44.594;11.046;2022-12-15T05:48:57;100246.50;;;4.00;90.06
42125;BME280;27787;44.594;11.046;2022-12-15T05:51:44;100256.00;;;3.96;90.30
42125;BME280;27787;44.594;11.046;2022-12-15T05:54:28;100267.47;;;4.03;90.36
42125;BME280;27787;44.594;11.046;2022-12-15T05:57:14;100270.03;;;4.01;90.22
42125;BME280;27787;44.594;11.046;2022-12-15T05:59:58;100283.00;;;3.97;90.32
42125;BME280;27787;44.594;11.046;2022-12-15T06:02:42;100287.22;;;3.92;90.53
42125;BME280;27787;44.594;11.046;2022-12-15T06:05:26;100291.75;;;3.99;90.68
42125;BME280;27787;44.594;11.046;2022-12-15T06:08:10;100299.63;;;4.00;90.82
42125;BME280;27787;44.594;11.046;2022-12-15T06:10:55;100299.66;;;4.02;90.55
42125;BME280;27787;44.594;11.046;2022-12-15T06:13:40;100305.72;;;4.01;90.61
42125;BME280;27787;44.594;11.046;2022-12-15T06:16:25;100308.25;;;3.98;90.63
42125;BME280;27787;44.594;11.046;2022-12-15T06:19:11;100308.28;;;3.99;90.79
42125;BME280;27787;44.594;11.046;2022-12-15T06:21:55;100303.28;;;4.07;90.98
42125;BME280;27787;44.594;11.046;2022-12-15T06:24:40;100306.13;;;4.16;90.58
42125;BME280;27787;44.594;11.046;2022-12-15T06:27:24;100302.94;;;4.28;89.60
42125;BME280;27787;44.594;11.046;2022-12-15T06:30:08;100298.75;;;4.34;88.92
42125;BME280;27787;44.594;11.046;2022-12-15T06:32:53;100305.66;;;4.31;88.89
42125;BME280;27787;44.594;11.046;2022-12-15T06:35:37;100318.63;;;4.29;89.12
42125;BME280;27787;44.594;11.046;2022-12-15T06:38:21;100314.19;;;4.25;89.22
42125;BME280;27787;44.594;11.046;2022-12-15T06:41:06;100312.44;;;4.24;89.49
42125;BME280;27787;44.594;11.046;2022-12-15T06:43:52;100310.59;;;4.20;89.29
42125;BME280;27787;44.594;11.046;2022-12-15T06:46:38;100314.72;;;4.12;89.80
42125;BME280;27787;44.594;11.046;2022-12-15T06:49:22;100319.03;;;4.10;90.50
42125;BME280;27787;44.594;11.046;2022-12-15T06:52:06;100325.28;;;4.17;90.72
42125;BME280;27787;44.594;11.046;2022-12-15T06:54:51;100322.81;;;4.21;90.44
42125;BME280;27787;44.594;11.046;2022-12-15T06:57:36;100325.66;;;4.30;89.70
42125;BME280;27787;44.594;11.046;2022-12-15T07:00:22;100337.88;;;4.31;89.43
42125;BME280;27787;44.594;11.046;2022-12-15T07:03:08;100340.47;;;4.30;89.96
42125;BME280;27787;44.594;11.046;2022-12-15T07:06:02;100331.50;;;4.20;90.26
42125;BME280;27787;44.594;11.046;2022-12-15T07:08:51;100320.19;;;4.21;90.90
42125;BME280;27787;44.594;11.046;2022-12-15T07:11:36;100330.81;;;4.29;90.88
42125;BME280;27787;44.594;11.046;2022-12-15T07:14:21;100333.44;;;4.29;90.28
42125;BME280;27787;44.594;11.046;2022-12-15T07:17:06;100335.16;;;4.28;90.45
42125;BME280;27787;44.594;11.046;2022-12-15T07:19:54;100347.44;;;4.31;90.90
42125;BME280;27787;44.594;11.046;2022-12-15T07:22:38;100351.78;;;4.30;90.97
42125;BME280;27787;44.594;11.046;2022-12-15T07:25:23;100353.56;;;4.31;91.29
42125;BME280;27787;44.594;11.046;2022-12-15T07:28:07;100358.81;;;4.33;91.92
42125;BME280;27787;44.594;11.046;2022-12-15T07:30:51;100364.16;;;4.37;92.12
42125;BME280;27787;44.594;11.046;2022-12-15T07:33:36;100365.97;;;4.41;92.49
42125;BME280;27787;44.594;11.046;2022-12-15T07:36:20;100352.06;;;4.42;92.30
42125;BME280;27787;44.594;11.046;2022-12-15T07:39:05;100353.09;;;4.48;93.01
42125;BME280;27787;44.594;11.046;2022-12-15T07:41:49;100360.19;;;4.53;93.03
42125;BME280;27787;44.594;11.046;2022-12-15T07:44:34;100371.66;;;4.58;93.33
42125;BME280;27787;44.594;11.046;2022-12-15T07:47:18;100363.88;;;4.61;93.28
42125;BME280;27787;44.594;11.046;2022-12-15T07:50:03;100363.13;;;4.67;93.38
42125;BME280;27787;44.594;11.046;2022-12-15T07:52:49;100349.31;;;4.71;93.44
42125;BME280;27787;44.594;11.046;2022-12-15T07:55:34;100349.63;;;4.83;93.33
42125;BME280;27787;44.594;11.046;2022-12-15T07:58:18;100345.44;;;4.91;92.97
42125;BME280;27787;44.594;11.046;2022-12-15T08:01:04;100359.50;;;4.96;92.69
42125;BME280;27787;44.594;11.046;2022-12-15T08:03:49;100364.81;;;4.99;92.55
42125;BME280;27787;44.594;11.046;2022-12-15T08:06:33;100363.03;;;4.98;92.42
42125;BME280;27787;44.594;11.046;2022-12-15T08:09:17;100377.84;;;4.98;92.49
42125;BME280;27787;44.594;11.046;2022-12-15T08:12:02;100386.72;;;5.04;93.08
42125;BME280;27787;44.594;11.046;2022-12-15T08:14:47;100388.50;;;5.07;92.80
42125;BME280;27787;44.594;11.046;2022-12-15T08:17:31;100395.56;;;5.10;92.99
42125;BME280;27787;44.594;11.046;2022-12-15T08:20:15;100406.31;;;5.22;92.89
42125;BME280;27787;44.594;11.046;2022-12-15T08:23:00;100413.34;;;5.24;92.24
42125;BME280;27787;44.594;11.046;2022-12-15T08:25:44;100402.09;;;5.28;92.47
42125;BME280;27787;44.594;11.046;2022-12-15T08:28:29;100409.25;;;5.36;92.01
42125;BME280;27787;44.594;11.046;2022-12-15T08:31:15;100409.41;;;5.43;92.39
42125;BME280;27787;44.594;11.046;2022-12-15T08:34:01;100420.81;;;5.47;91.41
42125;BME280;27787;44.594;11.046;2022-12-15T08:36:45;100420.81;;;5.47;91.37
42125;BME280;27787;44.594;11.046;2022-12-15T08:39:30;100417.25;;;5.43;90.61
42125;BME280;27787;44.594;11.046;2022-12-15T08:42:14;100430.28;;;5.40;90.59
42125;BME280;27787;44.594;11.046;2022-12-15T08:44:59;100432.00;;;5.38;90.62
42125;BME280;27787;44.594;11.046;2022-12-15T08:47:43;100436.28;;;5.35;90.92
42125;BME280;27787;44.594;11.046;2022-12-15T08:50:27;100423.97;;;5.32;91.70
42125;BME280;27787;44.594;11.046;2022-12-15T08:53:12;100416.13;;;5.32;92.07
42125;BME280;27787;44.594;11.046;2022-12-15T08:56:07;100424.84;;;5.31;93.15
42125;BME280;27787;44.594;11.046;2022-12-15T08:58:57;100427.53;;;5.34;94.02
42125;BME280;27787;44.594;11.046;2022-12-15T09:01:41;100432.03;;;5.41;94.21
42125;BME280;27787;44.594;11.046;2022-12-15T09:04:26;100413.97;;;5.52;93.82
42125;BME280;27787;44.594;11.046;2022-12-15T09:07:10;100416.81;;;5.62;92.67
42125;BME280;27787;44.594;11.046;2022-12-15T09:09:54;100428.41;;;5.74;91.33
42125;BME280;27787;44.594;11.046;2022-12-15T09:12:38;100431.16;;;5.80;90.60
42125;BME280;27787;44.594;11.046;2022-12-15T09:15:22;100448.63;;;5.81;89.40
42125;BME280;27787;44.594;11.046;2022-12-15T09:18:06;100455.69;;;5.85;88.95
42125;BME280;27787;44.594;11.046;2022-12-15T09:20:51;100449.69;;;5.89;88.15
42125;BME280;27787;44.594;11.046;2022-12-15T09:23:37;100441.09;;;5.95;85.86
42125;BME280;27787;44.594;11.046;2022-12-15T09:26:22;100439.50;;;6.01;83.79
42125;BME280;27787;44.594;11.046;2022-12-15T09:29:06;100429.09;;;6.06;83.38
42125;BME280;27787;44.594;11.046;2022-12-15T09:31:51;100423.03;;;6.08;82.60
42125;BME280;27787;44.594;11.046;2022-12-15T09:34:36;100417.94;;;6.14;83.09
42125;BME280;27787;44.594;11.046;2022-12-15T09:37:20;100411.88;;;6.17;82.85
42125;BME280;27787;44.594;11.046;2022-12-15T09:40:05;100403.16;;;6.19;81.83
42125;BME280;27787;44.594;11.046;2022-12-15T09:42:54;100401.38;;;6.17;82.45
42125;BME280;27787;44.594;11.046;2022-12-15T09:45:42;100402.25;;;6.17;82.42
42125;BME280;27787;44.594;11.046;2022-12-15T09:48:35;100404.03;;;6.18;82.65
42125;BME280;27787;44.594;11.046;2022-12-15T09:51:30;100392.66;;;6.18;82.20
42125;BME280;27787;44.594;11.046;2022-12-15T09:54:17;100407.56;;;6.20;82.51
42125;BME280;27787;44.594;11.046;2022-12-15T10:00:20;100394.50;;;6.24;82.07
42125;BME280;27787;44.594;11.046;2022-12-15T10:06:18;100388.41;;;6.25;81.11
42125;BME280;27787;44.594;11.046;2022-12-15T10:09:21;100391.03;;;6.25;81.63
42125;BME280;27787;44.594;11.046;2022-12-15T10:12:20;100386.69;;;6.25;82.04
42125;BME280;27787;44.594;11.046;2022-12-15T10:15:25;100379.75;;;6.29;81.79
42125;BME280;27787;44.594;11.046;2022-12-15T10:18:22;100381.53;;;6.30;81.66
42125;BME280;27787;44.594;11.046;2022-12-15T10:21:10;100398.97;;;6.28;81.65
42125;BME280;27787;44.594;11.046;2022-12-15T10:24:11;100399.75;;;6.24;81.66
42125;BME280;27787;44.594;11.046;2022-12-15T10:30:06;100386.63;;;6.24;82.09
42125;BME280;27787;44.594;11.046;2022-12-15T10:33:16;100371.88;;;6.27;81.91
42125;BME280;27787;44.594;11.046;2022-12-15T10:36:14;100365.84;;;6.33;81.17
42125;BME280;27787;44.594;11.046;2022-12-15T10:38:58;100364.09;;;6.32;80.84
42125;BME280;27787;44.594;11.046;2022-12-15T10:41:42;100361.50;;;6.35;80.57
42125;BME280;27787;44.594;11.046;2022-12-15T10:44:35;100345.81;;;6.36;80.49
42125;BME280;27787;44.594;11.046;2022-12-15T10:47:25;100346.69;;;6.37;80.97
42125;BME280;27787;44.594;11.046;2022-12-15T10:50:23;100348.53;;;6.41;80.98
42125;BME280;27787;44.594;11.046;2022-12-15T10:53:08;100348.56;;;6.44;81.37
42125;BME280;27787;44.594;11.046;2022-12-15T10:55:59;100346.91;;;6.49;81.26
42125;BME280;27787;44.594;11.046;2022-12-15T10:58:47;100331.19;;;6.50;81.32
42125;BME280;27787;44.594;11.046;2022-12-15T11:01:33;100322.38;;;6.44;81.60
42125;BME280;27787;44.594;11.046;2022-12-15T11:04:29;100318.03;;;6.46;82.11
42125;BME280;27787;44.594;11.046;2022-12-15T11:07:13;100315.41;;;6.47;81.96
42125;BME280;27787;44.594;11.046;2022-12-15T11:10:00;100305.78;;;6.45;81.77
42125;BME280;27787;44.594;11.046;2022-12-15T11:15:46;100314.56;;;6.48;82.18
42125;BME280;27787;44.594;11.046;2022-12-15T11:18:50;100319.81;;;6.48;81.25
42125;BME280;27787;44.594;11.046;2022-12-15T11:21:47;100301.47;;;6.50;81.70
42125;BME280;27787;44.594;11.046;2022-12-15T11:24:44;100300.53;;;6.45;82.22
42125;BME280;27787;44.594;11.046;2022-12-15T11:27:32;100288.22;;;6.39;82.87
42125;BME280;27787;44.594;11.046;2022-12-15T11:30:20;100281.94;;;6.31;82.85
42125;BME280;27787;44.594;11.046;2022-12-15T11:33:08;100273.06;;;6.23;82.97
42125;BME280;27787;44.594;11.046;2022-12-15T11:42:21;100272.38;;;6.35;84.00
42125;BME280;27787;44.594;11.046;2022-12-15T11:45:23;100259.28;;;6.35;84.35
42125;BME280;27787;44.594;11.046;2022-12-15T11:48:14;100263.56;;;6.28;84.49
42125;BME280;27787;44.594;11.046;2022-12-15T11:51:12;100257.38;;;6.25;84.86
42125;BME280;27787;44.594;11.046;2022-12-15T11:54:04;100252.19;;;6.28;85.15
42125;BME280;27787;44.594;11.046;2022-12-15T11:57:40;100245.28;;;6.33;84.22
42125;BME280;27787;44.594;11.046;2022-12-15T12:00:37;100236.56;;;6.34;84.15
42125;BME280;27787;44.594;11.046;2022-12-15T12:03:34;100247.03;;;6.34;83.78
42125;BME280;27787;44.594;11.046;2022-12-15T12:06:36;100233.03;;;6.32;84.29
42125;BME280;27787;44.594;11.046;2022-12-15T12:12:24;100230.44;;;6.33;85.31
42125;BME280;27787;44.594;11.046;2022-12-15T12:18:03;100223.41;;;6.31;85.06
42125;BME280;27787;44.594;11.046;2022-12-15T12:20:54;100219.03;;;6.30;85.18
42125;BME280;27787;44.594;11.046;2022-12-15T12:24:00;100219.97;;;6.35;85.27
42125;BME280;27787;44.594;11.046;2022-12-15T12:26:57;100219.97;;;6.35;85.25
42125;BME280;27787;44.594;11.046;2022-12-15T12:29:48;100223.50;;;6.37;85.34
42125;BME280;27787;44.594;11.046;2022-12-15T12:32:38;100222.69;;;6.41;85.33
42125;BME280;27787;44.594;11.046;2022-12-15T12:38:37;100227.09;;;6.42;85.53
42125;BME280;27787;44.594;11.046;2022-12-15T12:41:43;100228.91;;;6.47;85.78
42125;BME280;27787;44.594;11.046;2022-12-15T12:44:37;100225.38;;;6.45;85.71
42125;BME280;27787;44.594;11.046;2022-12-15T12:47:36;100218.34;;;6.43;85.53
42125;BME280;27787;44.594;11.046;2022-12-15T12:50:26;100210.53;;;6.46;85.58
42125;BME280;27787;44.594;11.046;2022-12-15T12:53:32;100211.41;;;6.45;85.62
42125;BME280;27787;44.594;11.046;2022-12-15T13:05:41;100186.13;;;6.50;85.18
42125;BME280;27787;44.594;11.046;2022-12-15T13:08:43;100174.78;;;6.51;84.91
42125;BME280;27787;44.594;11.046;2022-12-15T13:14:52;100176.47;;;6.47;85.10
42125;BME280;27787;44.594;11.046;2022-12-15T13:17:40;100179.94;;;6.46;85.53
42125;BME280;27787;44.594;11.046;2022-12-15T13:20:29;100196.59;;;6.50;85.68
42125;BME280;27787;44.594;11.046;2022-12-15T13:28:51;100200.00;;;6.43;87.96
42125;BME280;27787;44.594;11.046;2022-12-15T13:31:46;100191.25;;;6.42;89.03
42125;BME280;27787;44.594;11.046;2022-12-15T13:34:36;100180.78;;;6.44;89.22
42125;BME280;27787;44.594;11.046;2022-12-15T13:46:15;100172.72;;;6.30;92.59
42125;BME280;27787;44.594;11.046;2022-12-15T13:49:21;100173.59;;;6.31;93.27
42125;BME280;27787;44.594;11.046;2022-12-15T13:52:16;100166.56;;;6.25;93.96
42125;BME280;27787;44.594;11.046;2022-12-15T13:55:17;100167.38;;;6.24;94.69
42125;BME280;27787;44.594;11.046;2022-12-15T14:00:56;100156.66;;;6.09;95.49
42125;BME280;27787;44.594;11.046;2022-12-15T14:03:56;100139.16;;;6.06;96.77
42125;BME280;27787;44.594;11.046;2022-12-15T14:07:04;100146.97;;;6.03;97.34
42125;BME280;27787;44.594;11.046;2022-12-15T14:09:49;100131.31;;;6.08;97.83
42125;BME280;27787;44.594;11.046;2022-12-15T14:12:34;100130.44;;;6.06;97.74
42125;BME280;27787;44.594;11.046;2022-12-15T14:15:26;100125.22;;;6.09;97.93
42125;BME280;27787;44.594;11.046;2022-12-15T14:19:03;100121.72;;;6.08;98.88
42125;BME280;27787;44.594;11.046;2022-12-15T14:21:56;100129.59;;;6.08;99.67
42125;BME280;27787;44.594;11.046;2022-12-15T14:24:43;100124.38;;;6.11;99.38
42125;BME280;27787;44.594;11.046;2022-12-15T14:27:30;100133.94;;;6.08;99.42
42125;BME280;27787;44.594;11.046;2022-12-15T14:33:07;100124.31;;;6.07;100.00
42125;BME280;27787;44.594;11.046;2022-12-15T14:35:56;100127.88;;;6.10;99.74
42125;BME280;27787;44.594;11.046;2022-12-15T14:38:50;100128.69;;;6.06;100.00
42125;BME280;27787;44.594;11.046;2022-12-15T14:41:37;100120.81;;;6.06;100.00
42125;BME280;27787;44.594;11.046;2022-12-15T14:47:26;100100.78;;;6.10;100.00
42125;BME280;27787;44.594;11.046;2022-12-15T14:50:13;100114.69;;;6.04;100.00
42125;BME280;27787;44.594;11.046;2022-12-15T14:53:04;100093.72;;;6.03;100.00
42125;BME280;27787;44.594;11.046;2022-12-15T14:55:54;100080.63;;;6.04;100.00
42125;BME280;27787;44.594;11.046;2022-12-15T14:58:39;100076.28;;;6.05;100.00
42125;BME280;27787;44.594;11.046;2022-12-15T15:01:27;100084.00;;;5.97;100.00
42125;BME280;27787;44.594;11.046;2022-12-15T15:04:24;100078.75;;;5.97;100.00
42125;BME280;27787;44.594;11.046;2022-12-15T15:07:16;100064.75;;;5.94;100.00
42125;BME280;27787;44.594;11.046;2022-12-15T15:10:07;100053.41;;;5.95;100.00
42125;BME280;27787;44.594;11.046;2022-12-15T15:13:02;100066.50;;;5.95;100.00
42125;BME280;27787;44.594;11.046;2022-12-15T15:15:55;100054.19;;;5.89;100.00
42125;BME280;27787;44.594;11.046;2022-12-15T15:18:41;100053.34;;;5.90;100.00
42125;BME280;27787;44.594;11.046;2022-12-15T15:21:28;100056.00;;;5.93;100.00
42125;BME280;27787;44.594;11.046;2022-12-15T15:27:34;100056.88;;;5.92;100.00
42125;BME280;27787;44.594;11.046;2022-12-15T15:30:21;100046.41;;;5.92;100.00
42125;BME280;27787;44.594;11.046;2022-12-15T15:33:07;100062.13;;;5.92;100.00
42125;BME280;27787;44.594;11.046;2022-12-15T15:35:54;100055.13;;;5.91;100.00
42125;BME280;27787;44.594;11.046;2022-12-15T15:38:40;100049.72;;;5.83;100.00
42125;BME280;27787;44.594;11.046;2022-12-15T15:44:13;100026.91;;;5.73;100.00
42125;BME280;27787;44.594;11.046;2022-12-15T15:46:57;100006.03;;;5.79;100.00
42125;BME280;27787;44.594;11.046;2022-12-15T15:49:43;100006.16;;;5.88;100.00
42125;BME280;27787;44.594;11.046;2022-12-15T15:52:28;100004.47;;;5.90;100.00
42125;BME280;27787;44.594;11.046;2022-12-15T15:55:14;99997.50;;;5.93;100.00
42125;BME280;27787;44.594;11.046;2022-12-15T15:57:59;99990.53;;;5.93;100.00
42125;BME280;27787;44.594;11.046;2022-12-15T16:00:44;99988.63;;;5.84;100.00
42125;BME280;27787;44.594;11.046;2022-12-15T16:03:28;99988.59;;;5.81;100.00
42125;BME280;27787;44.594;11.046;2022-12-15T16:06:18;99987.63;;;5.75;100.00
42125;BME280;27787;44.594;11.046;2022-12-15T16:09:04;99984.19;;;5.77;100.00
42125;BME280;27787;44.594;11.046;2022-12-15T16:11:49;99971.13;;;5.80;100.00
42125;BME280;27787;44.594;11.046;2022-12-15T16:14:33;99962.41;;;5.81;100.00
42125;BME280;27787;44.594;11.046;2022-12-15T16:17:18;99967.66;;;5.84;100.00
42125;BME280;27787;44.594;11.046;2022-12-15T16:20:03;99958.13;;;5.86;100.00
42125;BME280;27787;44.594;11.046;2022-12-15T16:22:50;99966.84;;;5.87;100.00
42125;BME280;27787;44.594;11.046;2022-12-15T16:25:41;99968.56;;;5.85;100.00
42125;BME280;27787;44.594;11.046;2022-12-15T16:28:28;99960.69;;;5.83;100.00
42125;BME280;27787;44.594;11.046;2022-12-15T16:31:14;99958.06;;;5.85;100.00
42125;BME280;27787;44.594;11.046;2022-12-15T16:33:58;99971.31;;;5.93;100.00